Time;durP1;ratioP1;P1;durP2;ratioP2;P2;SDS_P1;SDS_P2;PMS_P1;PMS_P2;Temp;Humidity;BMP_temperature;BMP_pressure;BME280_temperature;BME280_humidity;BME280_pressure;Samples;Min_cycle;Max_cycle;Signal;HPM_P1;HPM_P2
2023/08/01 00:01:19;;;;;;;0.20;0.20;;;;;;;;;;5072470;28;20480;-65
2023/08/01 00:03:45;;;;;;;0.20;0.20;;;;;;;;;;5054659;28;20089;-65
2023/08/01 00:06:10;;;;;;;0.20;0.20;;;;;;;;;;5072332;28;20384;-65
2023/08/01 00:08:35;;;;;;;0.20;0.20;;;;;;;;;;5072502;28;20033;-65
2023/08/01 00:11:01;;;;;;;0.20;0.20;;;;;;;;;;5072504;28;20387;-65
2023/08/01 00:13:26;;;;;;;0.20;0.20;;;;;;;;;;5072349;28;20044;-66
2023/08/01 00:15:52;;;;;;;0.20;0.20;;;;;;;;;;5072440;28;20036;-64
2023/08/01 00:18:17;;;;;;;0.20;0.20;;;;;;;;;;5072542;28;20087;-65
2023/08/01 00:20:43;;;;;;;0.10;0.10;;;;;;;;;;5072115;28;20051;-65
2023/08/01 00:23:08;;;;;;;0.20;0.20;;;;;;;;;;5054677;28;20112;-65
2023/08/01 00:25:33;;;;;;;0.10;0.10;;;;;;;;;;5072280;28;20040;-66
2023/08/01 00:27:59;;;;;;;0.20;0.20;;;;;;;;;;5072237;28;20024;-66
2023/08/01 00:30:24;;;;;;;0.20;0.20;;;;;;;;;;5072315;28;20120;-65
2023/08/01 00:32:50;;;;;;;0.20;0.20;;;;;;;;;;5071999;28;20487;-66
2023/08/01 00:35:16;;;;;;;0.20;0.20;;;;;;;;;;5073990;28;20037;-67
2023/08/01 00:37:41;;;;;;;0.20;0.20;;;;;;;;;;5075568;28;20033;-66
2023/08/01 00:40:07;;;;;;;0.20;0.20;;;;;;;;;;5075945;28;20055;-67
2023/08/01 00:42:35;;;;;;;0.10;0.10;;;;;;;;;;5057843;28;20025;-66
2023/08/01 00:45:00;;;;;;;0.20;0.20;;;;;;;;;;5057942;28;20034;-66
2023/08/01 00:47:26;;;;;;;0.85;0.65;;;;;;;;;;5075557;28;20036;-66
2023/08/01 00:49:52;;;;;;;0.10;0.10;;;;;;;;;;5057559;28;20036;-65
2023/08/01 00:52:17;;;;;;;0.20;0.20;;;;;;;;;;5075434;28;20379;-66
2023/08/01 00:54:43;;;;;;;0.30;0.30;;;;;;;;;;5075560;28;20035;-65
2023/08/01 00:57:09;;;;;;;0.20;0.20;;;;;;;;;;5057661;28;20025;-65
2023/08/01 00:59:35;;;;;;;0.20;0.20;;;;;;;;;;5075353;28;20499;-65
2023/08/01 01:02:01;;;;;;;0.20;0.20;;;;;;;;;;5075410;28;20121;-65
2023/08/01 01:04:26;;;;;;;0.10;0.10;;;;;;;;;;5057037;28;20136;-66
2023/08/01 01:07:02;;;;;;;0.20;0.20;;;;;;;;;;5075352;28;20063;-65
2023/08/01 01:09:29;;;;;;;0.17;0.17;;;;;;;;;;5075354;28;20039;-65
2023/08/01 01:11:54;;;;;;;0.20;0.20;;;;;;;;;;5075258;28;20095;-66
2023/08/01 01:14:20;;;;;;;0.20;0.20;;;;;;;;;;5075319;28;20445;-66
2023/08/01 01:16:45;;;;;;;0.38;0.38;;;;;;;;;;5056596;28;20040;-66
2023/08/01 01:19:10;;;;;;;0.20;0.20;;;;;;;;;;5074869;28;20028;-66
2023/08/01 01:21:37;;;;;;;0.10;0.10;;;;;;;;;;5075059;28;20030;-66
2023/08/01 01:24:04;;;;;;;0.15;0.15;;;;;;;;;;5075133;28;20387;-66
2023/08/01 01:26:31;;;;;;;0.10;0.10;;;;;;;;;;5075016;28;20033;-66
2023/08/01 01:28:56;;;;;;;0.20;0.20;;;;;;;;;;5055635;28;20025;-67
2023/08/01 01:31:23;;;;;;;0.20;0.20;;;;;;;;;;5073779;28;20024;-66
2023/08/01 01:33:49;;;;;;;0.20;0.20;;;;;;;;;;5074713;28;20028;-66
2023/08/01 01:36:14;;;;;;;0.13;0.13;;;;;;;;;;5073522;28;20028;-66
2023/08/01 01:38:39;;;;;;;0.20;0.20;;;;;;;;;;5074037;28;20540;-68
2023/08/01 01:41:05;;;;;;;0.10;0.10;;;;;;;;;;5073566;28;20036;-65
2023/08/01 01:43:30;;;;;;;0.20;0.20;;;;;;;;;;5074732;28;20484;-66
2023/08/01 01:45:56;;;;;;;0.13;0.13;;;;;;;;;;5074177;28;20029;-66
2023/08/01 01:48:21;;;;;;;0.10;0.10;;;;;;;;;;5073333;28;20056;-66
2023/08/01 01:50:47;;;;;;;0.20;0.20;;;;;;;;;;5074753;28;20131;-66
2023/08/01 01:53:12;;;;;;;0.20;0.20;;;;;;;;;;5074556;28;20450;-66
2023/08/01 01:55:38;;;;;;;0.20;0.20;;;;;;;;;;5074542;28;20032;-66
2023/08/01 01:58:03;;;;;;;0.20;0.20;;;;;;;;;;5056563;28;20028;-65
2023/08/01 02:00:29;;;;;;;0.20;0.20;;;;;;;;;;5074239;28;20041;-66
2023/08/01 02:02:55;;;;;;;0.20;0.20;;;;;;;;;;5074530;28;20052;-66
2023/08/01 02:05:20;;;;;;;0.20;0.20;;;;;;;;;;5074254;28;20029;-65
2023/08/01 02:07:45;;;;;;;0.20;0.20;;;;;;;;;;5074261;28;20033;-65
2023/08/01 02:10:11;;;;;;;0.20;0.20;;;;;;;;;;5056517;28;20040;-65
2023/08/01 02:12:36;;;;;;;0.20;0.20;;;;;;;;;;5073094;28;20029;-66
2023/08/01 02:15:03;;;;;;;0.20;0.20;;;;;;;;;;5056489;28;20059;-66
2023/08/01 02:17:28;;;;;;;0.20;0.20;;;;;;;;;;5072889;28;20033;-65
2023/08/01 02:19:54;;;;;;;0.20;0.20;;;;;;;;;;5073972;28;20036;-66
2023/08/01 02:22:19;;;;;;;0.20;0.20;;;;;;;;;;5074004;28;20040;-66
2023/08/01 02:24:45;;;;;;;0.17;0.17;;;;;;;;;;5073248;28;20337;-65
2023/08/01 02:27:11;;;;;;;0.20;0.20;;;;;;;;;;5072754;28;20032;-65
2023/08/01 02:29:36;;;;;;;0.20;0.20;;;;;;;;;;5073902;28;20028;-66
2023/08/01 02:32:02;;;;;;;0.13;0.13;;;;;;;;;;5073802;28;20085;-66
2023/08/01 02:34:27;;;;;;;0.20;0.20;;;;;;;;;;5073637;28;20113;-66
2023/08/01 02:36:53;;;;;;;0.20;0.20;;;;;;;;;;5073023;28;20043;-65
2023/08/01 02:39:18;;;;;;;0.20;0.20;;;;;;;;;;5056014;28;20051;-65
2023/08/01 02:41:44;;;;;;;0.20;0.20;;;;;;;;;;5073830;28;20123;-65
2023/08/01 02:44:09;;;;;;;0.20;0.20;;;;;;;;;;5055815;28;20037;-66
2023/08/01 02:46:35;;;;;;;0.20;0.20;;;;;;;;;;5055881;28;20047;-66
2023/08/01 02:49:00;;;;;;;0.20;0.20;;;;;;;;;;5072261;28;20039;-66
2023/08/01 02:51:25;;;;;;;0.20;0.20;;;;;;;;;;5073546;28;20392;-65
2023/08/01 02:53:51;;;;;;;0.20;0.20;;;;;;;;;;5055706;28;20033;-65
2023/08/01 02:56:16;;;;;;;0.20;0.20;;;;;;;;;;5053814;28;20032;-65
2023/08/01 02:58:42;;;;;;;0.20;0.20;;;;;;;;;;5071599;28;20505;-65
2023/08/01 03:01:09;;;;;;;0.10;0.10;;;;;;;;;;5072585;28;20033;-65
2023/08/01 03:03:35;;;;;;;0.20;0.20;;;;;;;;;;5050313;28;20036;-65
2023/08/01 03:06:01;;;;;;;0.10;0.10;;;;;;;;;;5051725;28;20047;-65
2023/08/01 03:08:27;;;;;;;0.20;0.20;;;;;;;;;;5051669;28;20025;-65
2023/08/01 03:10:53;;;;;;;0.10;0.10;;;;;;;;;;5069538;28;20055;-65
2023/08/01 03:13:18;;;;;;;0.10;0.10;;;;;;;;;;5069127;28;20555;-67
2023/08/01 03:15:44;;;;;;;0.20;0.20;;;;;;;;;;5068130;28;20093;-66
2023/08/01 03:18:09;;;;;;;0.20;0.20;;;;;;;;;;5068090;28;20040;-66
2023/08/01 03:20:34;;;;;;;0.20;0.20;;;;;;;;;;5069181;28;20369;-67
2023/08/01 03:23:00;;;;;;;0.20;0.20;;;;;;;;;;5068941;28;20047;-67
2023/08/01 03:25:25;;;;;;;0.10;0.10;;;;;;;;;;5069160;28;20040;-66
2023/08/01 03:27:51;;;;;;;0.20;0.20;;;;;;;;;;5069221;28;20028;-66
2023/08/01 03:30:16;;;;;;;0.20;0.20;;;;;;;;;;5069292;28;20040;-66
2023/08/01 03:32:42;;;;;;;0.20;0.20;;;;;;;;;;5084310;28;20027;-68
2023/08/01 03:35:07;;;;;;;0.10;0.10;;;;;;;;;;5067671;28;20043;-67
2023/08/01 03:37:32;;;;;;;0.10;0.10;;;;;;;;;;5068010;28;20032;-67
2023/08/01 03:39:58;;;;;;;0.20;0.20;;;;;;;;;;5069001;28;20388;-66
2023/08/01 03:42:23;;;;;;;0.15;0.15;;;;;;;;;;5068692;28;20041;-66
2023/08/01 03:44:49;;;;;;;0.10;0.10;;;;;;;;;;5067258;28;20032;-65
2023/08/01 03:47:14;;;;;;;0.17;0.17;;;;;;;;;;5068477;28;20434;-67
2023/08/01 03:49:40;;;;;;;0.20;0.20;;;;;;;;;;5068887;28;20063;-65
2023/08/01 03:52:06;;;;;;;0.20;0.20;;;;;;;;;;5068685;28;20448;-65
2023/08/01 03:54:32;;;;;;;0.20;0.20;;;;;;;;;;5068467;28;20036;-65
2023/08/01 03:56:57;;;;;;;0.20;0.20;;;;;;;;;;5067846;28;20028;-67
2023/08/01 03:59:23;;;;;;;0.20;0.20;;;;;;;;;;5068529;28;20119;-66
2023/08/01 04:01:48;;;;;;;0.20;0.20;;;;;;;;;;5067681;28;20033;-65
2023/08/01 04:04:14;;;;;;;0.20;0.20;;;;;;;;;;5066897;28;20443;-67
2023/08/01 04:06:39;;;;;;;0.17;0.17;;;;;;;;;;5068394;28;20368;-65
2023/08/01 04:09:06;;;;;;;0.20;0.20;;;;;;;;;;5067708;28;20083;-66
2023/08/01 04:11:32;;;;;;;0.20;0.20;;;;;;;;;;5067696;28;20392;-65
2023/08/01 04:13:57;;;;;;;0.20;0.20;;;;;;;;;;5068696;28;20033;-67
2023/08/01 04:16:23;;;;;;;0.30;0.30;;;;;;;;;;5070922;28;20071;-66
2023/08/01 04:18:48;;;;;;;0.20;0.20;;;;;;;;;;5051048;28;20480;-66
2023/08/01 04:21:14;;;;;;;0.10;0.10;;;;;;;;;;5050375;28;20021;-67
2023/08/01 04:23:40;;;;;;;0.20;0.20;;;;;;;;;;5073493;28;20067;-66
2023/08/01 04:26:06;;;;;;;0.20;0.20;;;;;;;;;;5077574;28;20487;-66
2023/08/01 04:28:32;;;;;;;0.20;0.20;;;;;;;;;;5088297;28;20040;-66
2023/08/01 04:30:57;;;;;;;0.20;0.20;;;;;;;;;;5088211;28;20093;-66
2023/08/01 04:33:23;;;;;;;0.10;0.10;;;;;;;;;;5088029;28;20545;-66
2023/08/01 04:35:49;;;;;;;0.20;0.20;;;;;;;;;;5081286;28;20115;-66
2023/08/01 04:38:14;;;;;;;0.20;0.20;;;;;;;;;;5071729;28;20387;-66
2023/08/01 04:40:40;;;;;;;0.40;0.40;;;;;;;;;;5080868;28;20039;-67
2023/08/01 04:43:05;;;;;;;0.30;0.30;;;;;;;;;;5088526;28;20036;-66
2023/08/01 04:45:31;;;;;;;0.20;0.20;;;;;;;;;;5064051;28;20025;-67
2023/08/01 04:47:56;;;;;;;0.20;0.20;;;;;;;;;;5055380;28;20024;-66
2023/08/01 04:50:22;;;;;;;0.20;0.20;;;;;;;;;;5067779;28;20032;-67
2023/08/01 04:52:47;;;;;;;0.20;0.20;;;;;;;;;;5067855;28;20383;-65
2023/08/01 04:55:13;;;;;;;0.20;0.20;;;;;;;;;;5067214;28;20044;-66
2023/08/01 04:57:38;;;;;;;0.10;0.10;;;;;;;;;;5067675;28;20036;-65
2023/08/01 05:00:04;;;;;;;0.20;0.20;;;;;;;;;;5067397;28;20139;-66
2023/08/01 05:02:29;;;;;;;0.38;0.38;;;;;;;;;;5066859;28;20072;-67
2023/08/01 05:04:55;;;;;;;0.20;0.20;;;;;;;;;;5067700;28;20043;-67
2023/08/01 05:07:20;;;;;;;0.17;0.17;;;;;;;;;;5067291;28;20028;-67
2023/08/01 05:09:46;;;;;;;0.20;0.20;;;;;;;;;;5067777;28;20032;-68
2023/08/01 05:12:11;;;;;;;0.20;0.20;;;;;;;;;;5066525;28;20111;-67
2023/08/01 05:14:37;;;;;;;0.20;0.20;;;;;;;;;;5086528;28;20032;-67
2023/08/01 05:17:02;;;;;;;0.20;0.20;;;;;;;;;;5085449;28;20165;-67
2023/08/01 05:19:28;;;;;;;0.20;0.20;;;;;;;;;;5066867;28;20409;-68
2023/08/01 05:21:55;;;;;;;0.20;0.20;;;;;;;;;;5081346;28;20035;-66
2023/08/01 05:24:20;;;;;;;0.20;0.20;;;;;;;;;;5091653;28;20024;-66
2023/08/01 05:26:45;;;;;;;0.13;0.13;;;;;;;;;;5091672;28;20043;-66
2023/08/01 05:29:11;;;;;;;0.17;0.17;;;;;;;;;;5090993;28;20115;-67
2023/08/01 05:31:36;;;;;;;0.20;0.20;;;;;;;;;;5067738;28;20172;-66
2023/08/01 05:34:02;;;;;;;0.20;0.20;;;;;;;;;;5072091;28;20091;-67
2023/08/01 05:36:27;;;;;;;0.13;0.13;;;;;;;;;;5067592;28;20479;-66
2023/08/01 05:38:53;;;;;;;0.20;0.20;;;;;;;;;;5066499;28;20021;-67
2023/08/01 05:41:18;;;;;;;0.10;0.10;;;;;;;;;;5070005;28;20404;-67
2023/08/01 05:43:44;;;;;;;0.13;0.13;;;;;;;;;;5055613;28;20090;-67
2023/08/01 05:46:10;;;;;;;0.20;0.20;;;;;;;;;;5075326;28;20491;-67
2023/08/01 05:48:35;;;;;;;0.28;0.28;;;;;;;;;;5076763;28;20020;-67
2023/08/01 05:51:01;;;;;;;0.20;0.20;;;;;;;;;;5080949;28;20039;-66
2023/08/01 05:53:27;;;;;;;0.20;0.20;;;;;;;;;;5070744;28;20040;-67
2023/08/01 05:55:52;;;;;;;0.20;0.20;;;;;;;;;;5068247;28;20036;-66
2023/08/01 05:58:18;;;;;;;1.25;1.00;;;;;;;;;;5065517;28;20047;-67
2023/08/01 06:00:43;;;;;;;0.20;0.20;;;;;;;;;;5055038;28;20082;-67
2023/08/01 06:03:08;;;;;;;0.20;0.20;;;;;;;;;;5052656;28;20461;-67
2023/08/01 06:05:34;;;;;;;0.20;0.20;;;;;;;;;;5050464;28;20033;-67
2023/08/01 06:07:59;;;;;;;0.20;0.20;;;;;;;;;;5057184;28;20491;-66
2023/08/01 06:10:25;;;;;;;0.20;0.20;;;;;;;;;;5070200;28;20068;-67
2023/08/01 06:12:50;;;;;;;0.20;0.20;;;;;;;;;;5070211;28;20044;-68
2023/08/01 06:15:16;;;;;;;0.20;0.20;;;;;;;;;;5069006;28;20029;-68
2023/08/01 06:17:41;;;;;;;0.20;0.20;;;;;;;;;;5069700;28;20090;-67
2023/08/01 06:20:07;;;;;;;0.30;0.30;;;;;;;;;;5069214;28;20372;-68
2023/08/01 06:22:32;;;;;;;0.28;0.28;;;;;;;;;;5070135;28;20063;-66
2023/08/01 06:24:58;;;;;;;0.77;0.77;;;;;;;;;;5068964;28;20369;-67
2023/08/01 06:27:24;;;;;;;0.43;0.43;;;;;;;;;;5070102;28;20503;-66
2023/08/01 06:29:49;;;;;;;0.30;0.30;;;;;;;;;;5068588;28;20037;-67
2023/08/01 06:32:15;;;;;;;1.73;1.02;;;;;;;;;;5070042;28;20043;-67
2023/08/01 06:34:40;;;;;;;0.30;0.30;;;;;;;;;;5069415;28;20029;-66
2023/08/01 06:37:06;;;;;;;0.40;0.40;;;;;;;;;;5068803;28;20059;-68
2023/08/01 06:39:31;;;;;;;0.30;0.30;;;;;;;;;;5070067;28;20043;-68
2023/08/01 06:41:57;;;;;;;0.63;0.63;;;;;;;;;;5069875;28;20028;-68
2023/08/01 06:44:22;;;;;;;0.30;0.30;;;;;;;;;;5069898;28;20122;-68
2023/08/01 06:46:47;;;;;;;0.40;0.40;;;;;;;;;;5069059;28;20040;-67
2023/08/01 06:49:13;;;;;;;2.70;1.17;;;;;;;;;;5068682;28;20028;-67
2023/08/01 06:51:38;;;;;;;2.13;1.13;;;;;;;;;;5069502;28;20029;-67
2023/08/01 06:54:04;;;;;;;1.02;0.93;;;;;;;;;;5069920;28;20037;-66
2023/08/01 06:56:29;;;;;;;0.82;0.82;;;;;;;;;;5069063;28;20032;-67
2023/08/01 06:58:54;;;;;;;9.30;2.88;;;;;;;;;;5068918;28;20503;-67
2023/08/01 07:01:20;;;;;;;0.68;0.52;;;;;;;;;;5061601;28;20039;-67
2023/08/01 07:03:46;;;;;;;0.35;0.35;;;;;;;;;;5069271;28;20051;-67
2023/08/01 07:06:11;;;;;;;5.57;1.45;;;;;;;;;;5061031;28;20503;-67
2023/08/01 07:08:36;;;;;;;3.53;0.82;;;;;;;;;;5049387;28;20098;-66
2023/08/01 07:11:02;;;;;;;3.20;0.43;;;;;;;;;;5049313;28;20043;-67
2023/08/01 07:13:28;;;;;;;0.43;0.40;;;;;;;;;;5031140;28;20036;-67
2023/08/01 07:15:53;;;;;;;1.83;0.82;;;;;;;;;;5065559;28;20029;-71
2023/08/01 07:18:20;;;;;;;0.65;0.50;;;;;;;;;;5067040;28;20037;-66
2023/08/01 07:20:47;;;;;;;5.95;1.92;;;;;;;;;;5066728;28;20634;-69
2023/08/01 07:23:13;;;;;;;0.35;0.35;;;;;;;;;;5072543;28;20468;-69
2023/08/01 07:25:39;;;;;;;3.03;1.52;;;;;;;;;;5068394;28;20032;-68
2023/08/01 07:28:05;;;;;;;2.95;0.55;;;;;;;;;;5056286;28;20560;-68
2023/08/01 07:30:32;;;;;;;0.45;0.45;;;;;;;;;;5069225;28;20024;-67
2023/08/01 07:33:00;;;;;;;;;;;;;;;;;;5069093;28;20032;-68
2023/08/01 07:35:32;;;;;;;0.28;0.28;;;;;;;;;;5066067;28;19998;-71
2023/08/01 07:37:58;;;;;;;1.50;0.80;;;;;;;;;;5067553;28;20613;-67
2023/08/01 07:40:23;;;;;;;9.35;2.30;;;;;;;;;;5064386;28;20131;-68
2023/08/01 07:42:50;;;;;;;0.30;0.30;;;;;;;;;;5056426;28;20021;-68
2023/08/01 07:45:15;;;;;;;5.72;1.60;;;;;;;;;;5048600;28;20032;-69
2023/08/01 07:47:41;;;;;;;2.30;0.95;;;;;;;;;;5065562;28;20040;-68
2023/08/01 07:50:06;;;;;;;3.03;2.03;;;;;;;;;;5065153;28;20721;-68
2023/08/01 07:52:32;;;;;;;1.80;0.70;;;;;;;;;;5042413;28;20395;-68
2023/08/01 07:54:58;;;;;;;1.50;0.90;;;;;;;;;;5061774;28;20479;-68
2023/08/01 07:57:24;;;;;;;0.30;0.30;;;;;;;;;;5050776;28;20384;-70
2023/08/01 07:59:49;;;;;;;0.73;0.73;;;;;;;;;;5050548;28;20021;-69
2023/08/01 08:02:15;;;;;;;1.25;1.00;;;;;;;;;;5056721;28;20040;-69
2023/08/01 08:04:40;;;;;;;2.78;1.00;;;;;;;;;;5060333;28;20029;-69
2023/08/01 08:07:06;;;;;;;0.30;0.30;;;;;;;;;;5067930;28;20062;-68
2023/08/01 08:09:32;;;;;;;1.33;0.63;;;;;;;;;;5067982;28;20464;-69
2023/08/01 08:11:57;;;;;;;1.88;0.90;;;;;;;;;;5068007;28;20032;-69
2023/08/01 08:14:23;;;;;;;0.40;0.40;;;;;;;;;;5068451;28;20766;-69
2023/08/01 08:16:49;;;;;;;4.40;1.05;;;;;;;;;;5068015;28;20115;-68
2023/08/01 08:19:15;;;;;;;4.03;0.73;;;;;;;;;;5067836;28;20459;-68
2023/08/01 08:21:40;;;;;;;2.35;0.88;;;;;;;;;;5067004;28;20040;-68
2023/08/01 08:24:06;;;;;;;0.60;0.60;;;;;;;;;;5049184;28;20389;-68
2023/08/01 08:26:34;;;;;;;0.30;0.30;;;;;;;;;;5048009;28;20033;-68
2023/08/01 08:28:59;;;;;;;4.07;1.23;;;;;;;;;;5047550;28;20033;-68
2023/08/01 08:31:25;;;;;;;0.45;0.45;;;;;;;;;;5048212;28;20518;-68
2023/08/01 08:33:50;;;;;;;1.65;0.93;;;;;;;;;;5047826;28;20039;-69
2023/08/01 08:36:15;;;;;;;4.80;1.05;;;;;;;;;;5055579;28;20069;-68
2023/08/01 08:38:41;;;;;;;0.70;0.70;;;;;;;;;;5062908;28;20037;-68
2023/08/01 08:41:36;;;;;;;0.68;0.68;;;;;;;;;;5055793;28;20041;-70
2023/08/01 08:44:03;;;;;;;2.05;1.40;;;;;;;;;;5061270;28;20036;-68
2023/08/01 08:46:29;;;;;;;0.30;0.30;;;;;;;;;;5064836;28;20085;-68
2023/08/01 08:49:00;;;;;;;2.40;1.33;;;;;;;;;;5072742;28;20028;-68
2023/08/01 08:51:29;;;;;;;5.28;1.20;;;;;;;;;;5074201;28;20123;-68
2023/08/01 08:53:56;;;;;;;0.95;0.75;;;;;;;;;;5071881;28;20484;-68
2023/08/01 08:56:22;;;;;;;3.80;1.13;;;;;;;;;;5049835;28;20037;-70
2023/08/01 08:58:48;;;;;;;8.82;2.60;;;;;;;;;;5078036;28;20016;-68
2023/08/01 09:01:13;;;;;;;7.88;1.55;;;;;;;;;;5075021;28;20519;-68
2023/08/01 09:03:39;;;;;;;1.95;0.60;;;;;;;;;;5077306;28;20046;-69
2023/08/01 09:06:11;;;;;;;1.30;0.60;;;;;;;;;;5075258;28;20036;-69
2023/08/01 09:08:39;;;;;;;8.63;2.33;;;;;;;;;;5073418;28;20056;-68
2023/08/01 09:11:04;;;;;;;2.05;0.80;;;;;;;;;;5072305;28;20039;-69
2023/08/01 09:13:30;;;;;;;3.67;1.13;;;;;;;;;;5072348;28;20383;-69
2023/08/01 09:15:56;;;;;;;2.20;1.25;;;;;;;;;;5064414;28;20170;-69
2023/08/01 09:18:22;;;;;;;0.40;0.40;;;;;;;;;;5060920;28;20036;-68
2023/08/01 09:20:48;;;;;;;4.40;2.47;;;;;;;;;;5082172;28;20036;-69
2023/08/01 09:23:13;;;;;;;0.30;0.30;;;;;;;;;;5062789;28;20056;-67
2023/08/01 09:25:39;;;;;;;3.47;1.45;;;;;;;;;;5043969;28;20500;-68
2023/08/01 09:28:18;;;;;;;1.13;0.70;;;;;;;;;;5047252;28;20041;-69
2023/08/01 09:31:02;;;;;;;1.33;0.50;;;;;;;;;;5059563;28;20558;-68
2023/08/01 09:33:36;;;;;;;2.10;1.08;;;;;;;;;;5059525;28;20115;-68
2023/08/01 09:36:04;;;;;;;6.50;1.80;;;;;;;;;;5066015;28;20482;-66
2023/08/01 09:38:33;;;;;;;0.85;0.63;;;;;;;;;;5066734;28;20036;-69
2023/08/01 09:40:59;;;;;;;;;;;;;;;;;;5064493;28;20317;-73
2023/08/01 09:43:24;;;;;;;5.40;0.93;;;;;;;;;;5065420;28;20300;-73
2023/08/01 09:45:53;;;;;;;0.30;0.30;;;;;;;;;;5066280;28;20799;-77
2023/08/01 09:48:37;;;;;;;2.83;1.08;;;;;;;;;;5067083;28;20037;-75
2023/08/01 09:51:09;;;;;;;0.82;0.82;;;;;;;;;;5066229;28;20036;-74
2023/08/01 09:53:35;;;;;;;0.50;0.50;;;;;;;;;;5066702;28;20028;-75
2023/08/01 09:56:04;;;;;;;8.88;1.77;;;;;;;;;;5061317;28;20107;-74
2023/08/01 09:58:30;;;;;;;;;;;;;;;;;;5071352;28;20058;-74
2023/08/01 10:00:56;;;;;;;1.67;1.57;;;;;;;;;;5083886;28;19971;-76
2023/08/01 10:03:21;;;;;;;3.28;1.30;;;;;;;;;;5066238;28;20258;-75
2023/08/01 10:05:47;;;;;;;23.48;1.67;;;;;;;;;;5079681;28;20035;-75
2023/08/01 10:08:13;;;;;;;2.92;1.23;;;;;;;;;;5066738;28;20029;-75
2023/08/01 10:10:38;;;;;;;0.80;0.80;;;;;;;;;;5060821;28;20041;-75
2023/08/01 10:13:04;;;;;;;1.40;1.10;;;;;;;;;;5084633;28;20421;-75
2023/08/01 10:15:30;;;;;;;2.63;0.98;;;;;;;;;;5086623;28;20471;-76
2023/08/01 10:17:56;;;;;;;3.40;1.25;;;;;;;;;;5089863;28;20078;-75
2023/08/01 10:20:22;;;;;;;5.90;2.08;;;;;;;;;;5089686;28;20028;-75
2023/08/01 10:22:48;;;;;;;0.30;0.30;;;;;;;;;;5074500;28;20085;-75
2023/08/01 10:25:14;;;;;;;5.35;1.48;;;;;;;;;;5070042;28;20036;-76
2023/08/01 10:27:40;;;;;;;0.75;0.47;;;;;;;;;;5069777;28;20036;-75
2023/08/01 10:30:07;;;;;;;7.38;1.50;;;;;;;;;;5069751;28;20024;-76
2023/08/01 10:32:34;;;;;;;0.85;0.85;;;;;;;;;;5051758;28;20127;-76
2023/08/01 10:35:00;;;;;;;1.77;0.80;;;;;;;;;;5069462;28;20128;-76
2023/08/01 10:37:26;;;;;;;9.35;1.73;;;;;;;;;;5069080;28;20123;-76
2023/08/01 10:39:58;;;;;;;0.30;0.30;;;;;;;;;;5069299;28;20035;-76
2023/08/01 10:42:24;;;;;;;2.67;1.05;;;;;;;;;;5060289;28;20070;-76
2023/08/01 10:44:50;;;;;;;6.75;1.73;;;;;;;;;;5069462;28;20033;-76
2023/08/01 10:47:24;;;;;;;4.10;1.08;;;;;;;;;;5049147;28;20024;-76
2023/08/01 10:49:50;;;;;;;3.05;1.17;;;;;;;;;;5068238;28;20058;-76
2023/08/01 10:52:24;;;;;;;0.82;0.73;;;;;;;;;;5070064;28;20056;-76
2023/08/01 10:54:59;;;;;;;10.45;3.42;;;;;;;;;;5066779;28;20040;-76
2023/08/01 10:57:26;;;;;;;6.65;2.35;;;;;;;;;;5066921;28;20044;-76
2023/08/01 10:59:51;;;;;;;0.30;0.30;;;;;;;;;;5048620;28;20104;-76
2023/08/01 11:02:24;;;;;;;7.22;2.08;;;;;;;;;;5060032;28;20140;-76
2023/08/01 11:04:59;;;;;;;6.35;1.23;;;;;;;;;;5049275;28;20032;-76
2023/08/01 11:07:25;;;;;;;0.40;0.40;;;;;;;;;;5067378;28;20047;-75
2023/08/01 11:10:04;;;;;;;1.55;0.80;;;;;;;;;;5069713;28;20033;-76
2023/08/01 11:12:30;;;;;;;0.30;0.30;;;;;;;;;;5066375;28;20093;-76
2023/08/01 11:15:05;;;;;;;6.75;1.52;;;;;;;;;;5068961;28;20037;-76
2023/08/01 11:17:32;;;;;;;1.40;0.85;;;;;;;;;;5050818;28;20457;-75
2023/08/01 11:20:08;;;;;;;2.80;1.05;;;;;;;;;;5068514;28;20028;-76
2023/08/01 11:22:37;;;;;;;5.28;1.92;;;;;;;;;;5051292;28;20453;-76
2023/08/01 11:25:03;;;;;;;0.68;0.52;;;;;;;;;;5068529;28;20048;-75
2023/08/01 11:27:28;;;;;;;0.40;0.40;;;;;;;;;;5051027;28;20040;-76
2023/08/01 11:29:54;;;;;;;1.50;0.80;;;;;;;;;;5068830;28;20020;-76
2023/08/01 11:32:23;;;;;;;0.50;0.50;;;;;;;;;;5050646;28;20040;-76
2023/08/01 11:34:49;;;;;;;1.02;1.00;;;;;;;;;;5068474;28;20032;-76
2023/08/01 11:37:15;;;;;;;4.88;2.22;;;;;;;;;;5068220;28;20187;-76
2023/08/01 11:39:40;;;;;;;1.33;1.08;;;;;;;;;;5068666;28;20036;-76
2023/08/01 11:42:06;;;;;;;0.38;0.38;;;;;;;;;;5068490;28;20042;-76
2023/08/01 11:44:31;;;;;;;2.85;1.33;;;;;;;;;;5059464;28;20020;-75
2023/08/01 11:46:57;;;;;;;1.05;0.77;;;;;;;;;;5065501;28;20023;-76
2023/08/01 11:49:23;;;;;;;1.27;0.80;;;;;;;;;;5067177;28;20046;-76
2023/08/01 11:51:49;;;;;;;1.13;0.70;;;;;;;;;;5049491;28;20043;-76
2023/08/01 11:54:15;;;;;;;0.38;0.38;;;;;;;;;;5071857;28;20020;-75
2023/08/01 11:56:41;;;;;;;3.15;1.48;;;;;;;;;;5048323;28;20116;-76
2023/08/01 11:59:08;;;;;;;12.35;1.25;;;;;;;;;;5046556;28;20032;-76
2023/08/01 12:01:37;;;;;;;5.53;1.50;;;;;;;;;;5073283;28;20343;-75
2023/08/01 12:04:03;;;;;;;0.60;0.60;;;;;;;;;;5086785;28;20027;-76
2023/08/01 12:06:30;;;;;;;3.80;1.83;;;;;;;;;;5071069;28;20044;-76
2023/08/01 12:09:05;;;;;;;1.80;1.15;;;;;;;;;;5065555;28;20498;-76
2023/08/01 12:11:30;;;;;;;2.95;0.80;;;;;;;;;;5064244;28;20131;-74
2023/08/01 12:14:09;;;;;;;2.45;1.33;;;;;;;;;;5064622;28;20115;-72
2023/08/01 12:16:35;;;;;;;;;;;;;;;;;;5064856;28;20043;-73
2023/08/01 12:19:00;;;;;;;1.40;0.90;;;;;;;;;;5064776;28;20011;-73
2023/08/01 12:21:26;;;;;;;1.17;0.32;;;;;;;;;;5058983;28;20040;-73
2023/08/01 12:23:51;;;;;;;6.38;1.10;;;;;;;;;;5063973;28;20036;-72
2023/08/01 12:26:16;;;;;;;1.10;0.68;;;;;;;;;;5065475;28;20072;-72
2023/08/01 12:28:43;;;;;;;1.85;1.15;;;;;;;;;;5059241;28;20394;-73
2023/08/01 12:31:09;;;;;;;3.72;1.58;;;;;;;;;;5049057;28;20033;-72
2023/08/01 12:33:34;;;;;;;1.83;1.23;;;;;;;;;;5049103;28;20090;-72
2023/08/01 12:36:00;;;;;;;0.38;0.38;;;;;;;;;;5056767;28;20031;-72
2023/08/01 12:38:26;;;;;;;0.40;0.40;;;;;;;;;;5069689;28;20049;-74
2023/08/01 12:40:51;;;;;;;0.77;0.63;;;;;;;;;;5080545;28;20101;-71
2023/08/01 12:43:17;;;;;;;3.70;1.20;;;;;;;;;;5090059;28;20036;-73
2023/08/01 12:45:43;;;;;;;2.20;2.00;;;;;;;;;;5075981;28;20086;-72
2023/08/01 12:48:08;;;;;;;2.25;1.73;;;;;;;;;;5071317;28;20040;-71
2023/08/01 12:50:34;;;;;;;0.65;0.57;;;;;;;;;;5071568;28;20043;-72
2023/08/01 12:52:59;;;;;;;3.70;1.33;;;;;;;;;;5070395;28;20395;-73
2023/08/01 12:55:25;;;;;;;3.95;1.08;;;;;;;;;;5070691;28;20044;-73
2023/08/01 12:57:51;;;;;;;0.40;0.40;;;;;;;;;;5070864;28;20032;-73
2023/08/01 13:00:17;;;;;;;2.50;1.25;;;;;;;;;;5070989;28;20028;-72
2023/08/01 13:02:42;;;;;;;1.83;1.15;;;;;;;;;;5070755;28;20027;-72
2023/08/01 13:05:08;;;;;;;2.47;0.93;;;;;;;;;;5077819;28;20039;-72
2023/08/01 13:07:34;;;;;;;4.07;1.45;;;;;;;;;;5087602;28;20056;-73
2023/08/01 13:10:00;;;;;;;1.15;0.90;;;;;;;;;;5062750;28;20036;-72
2023/08/01 13:12:25;;;;;;;4.32;0.85;;;;;;;;;;5069968;28;20040;-72
2023/08/01 13:14:51;;;;;;;0.82;0.73;;;;;;;;;;5067581;28;20533;-71
2023/08/01 13:17:16;;;;;;;7.43;1.77;;;;;;;;;;5067820;28;20043;-72
2023/08/01 13:19:41;;;;;;;0.57;0.57;;;;;;;;;;5068665;28;20479;-71
2023/08/01 13:22:07;;;;;;;0.52;0.52;;;;;;;;;;5069262;28;20037;-71
2023/08/01 13:24:32;;;;;;;0.38;0.38;;;;;;;;;;5070117;28;20031;-71
2023/08/01 13:26:58;;;;;;;0.38;0.38;;;;;;;;;;5063492;28;20025;-71
2023/08/01 13:29:23;;;;;;;0.68;0.68;;;;;;;;;;5062967;28;20040;-71
2023/08/01 13:31:49;;;;;;;0.90;0.75;;;;;;;;;;5066471;28;20463;-73
2023/08/01 13:34:14;;;;;;;1.23;0.85;;;;;;;;;;5064963;28;20025;-72
2023/08/01 13:36:40;;;;;;;8.55;1.08;;;;;;;;;;5051783;28;20123;-71
2023/08/01 13:39:05;;;;;;;3.03;1.50;;;;;;;;;;5065620;28;20390;-72
2023/08/01 13:41:32;;;;;;;4.40;1.60;;;;;;;;;;5059986;28;20037;-72
2023/08/01 13:43:57;;;;;;;0.55;0.52;;;;;;;;;;5061481;28;20037;-72
2023/08/01 13:46:22;;;;;;;0.85;0.85;;;;;;;;;;5076011;28;20320;-72
2023/08/01 13:48:48;;;;;;;3.95;1.88;;;;;;;;;;5066751;28;20082;-71
2023/08/01 13:51:14;;;;;;;2.50;1.02;;;;;;;;;;5067660;28;20097;-72
2023/08/01 13:53:42;;;;;;;4.45;0.50;;;;;;;;;;5062011;28;20051;-72
2023/08/01 13:56:14;;;;;;;0.30;0.30;;;;;;;;;;5067965;28;20024;-72
2023/08/01 13:58:41;;;;;;;1.88;0.70;;;;;;;;;;5067527;28;20048;-72
2023/08/01 14:01:07;;;;;;;1.13;0.77;;;;;;;;;;5068345;28;20033;-72
2023/08/01 14:03:33;;;;;;;2.17;0.95;;;;;;;;;;5066271;28;20078;-73
2023/08/01 14:06:04;;;;;;;1.33;0.70;;;;;;;;;;5062456;28;20391;-73
2023/08/01 14:08:30;;;;;;;0.77;0.50;;;;;;;;;;5064300;28;20032;-74
2023/08/01 14:10:55;;;;;;;0.40;0.40;;;;;;;;;;5046979;28;20384;-71
2023/08/01 14:13:20;;;;;;;8.50;2.67;;;;;;;;;;5069505;28;20396;-72
2023/08/01 14:15:46;;;;;;;3.28;2.00;;;;;;;;;;5069061;28;20388;-71
2023/08/01 14:18:11;;;;;;;4.75;1.70;;;;;;;;;;5053840;28;20028;-71
2023/08/01 14:20:37;;;;;;;0.63;0.50;;;;;;;;;;5077661;28;20437;-72
2023/08/01 14:23:03;;;;;;;6.72;1.27;;;;;;;;;;5087663;28;20052;-71
2023/08/01 14:25:28;;;;;;;0.90;0.63;;;;;;;;;;5069770;28;21073;-72
2023/08/01 14:27:54;;;;;;;1.05;0.93;;;;;;;;;;5088141;28;20039;-72
2023/08/01 14:30:19;;;;;;;2.05;1.00;;;;;;;;;;5069124;28;20453;-73
2023/08/01 14:32:44;;;;;;;3.55;0.98;;;;;;;;;;5067664;28;20051;-71
2023/08/01 14:35:10;;;;;;;11.38;2.35;;;;;;;;;;5068694;28;20109;-72
2023/08/01 14:37:36;;;;;;;2.92;0.73;;;;;;;;;;5067978;28;20098;-72